PWSweather.com
Personal Weather Stations
Station Observations
KCTCOLEB1
Sandy Brook, Colebrook, CT 06021

Sandy BrookColebrook, CT 06021

Lat: 42.0018, Lon: -73.0825

Elevation: 935

Station Type: Davis Vantage Pro2 + Solar + UV

High Low Average
Temperature 39.1°F3.9°C 13.5°F-10.3°C 26.4°F-3.1°C
Dew Point 25.5°F-3.6°C 9.0°F-12.8°C 19.3°F-7.1°C
Winds 3.5 mph 5.6 kmh Calm Calm Calm WSWCalm WSW
Wind Gusts 5.8 mph9.3 kmh -- 1.0 mph1.6 kmh
Humidity 87% 54% 75%
Pressure 30.38 in1028.8 mb 30.20 in1022.7 mb -
Precipitation 0.04 in1.0 mm - -
Hour Temp Dew Point Humidity Winds Wind Gusts Pressure Precip Precip Rate Daily Precip Total
12:00 AM 13.5°F-10.3°C 9.0°F-12.8°C 82% Calm Calm -- 30.32 in1026.8 mb - 0.00 in0.0 mm 0.00 in0.0 mm
12:10 AM 13.6°F-10.2°C 9.1°F-12.7°C 82% Calm Calm -- 30.32 in1026.8 mb - 0.00 in0.0 mm 0.00 in0.0 mm
12:20 AM 13.6°F-10.2°C 9.1°F-12.7°C 82% Calm Calm -- 30.32 in1026.8 mb - 0.00 in0.0 mm 0.00 in0.0 mm
12:30 AM 13.7°F-10.2°C 9.2°F-12.7°C 82% Calm Calm -- 30.31 in1026.4 mb - 0.00 in0.0 mm 0.00 in0.0 mm
12:40 AM 13.9°F-10.1°C 9.4°F-12.6°C 82% Calm Calm -- 30.32 in1026.8 mb - 0.00 in0.0 mm 0.00 in0.0 mm
12:50 AM 14.0°F-10.0°C 9.5°F-12.5°C 82% Calm Calm -- 30.31 in1026.4 mb - 0.00 in0.0 mm 0.00 in0.0 mm
01:00 AM 14.2°F-9.9°C 9.4°F-12.6°C 81% Calm Calm -- 30.31 in1026.4 mb - 0.00 in0.0 mm 0.00 in0.0 mm
01:10 AM 14.3°F-9.8°C 9.5°F-12.5°C 81% Calm Calm -- 30.31 in1026.4 mb - 0.00 in0.0 mm 0.00 in0.0 mm
01:20 AM 14.4°F-9.8°C 9.6°F-12.4°C 81% Calm Calm -- 30.31 in1026.4 mb - 0.00 in0.0 mm 0.00 in0.0 mm
01:30 AM 14.4°F-9.8°C 9.6°F-12.4°C 81% Calm Calm -- 30.31 in1026.4 mb - 0.00 in0.0 mm 0.00 in0.0 mm
01:40 AM 14.5°F-9.7°C 9.7°F-12.4°C 81% Calm Calm -- 30.31 in1026.4 mb - 0.00 in0.0 mm 0.00 in0.0 mm
01:50 AM 14.6°F-9.7°C 9.8°F-12.3°C 81% Calm Calm -- 30.31 in1026.4 mb - 0.00 in0.0 mm 0.00 in0.0 mm
02:00 AM 14.8°F-9.6°C 10.0°F-12.2°C 81% Calm Calm -- 30.31 in1026.4 mb - 0.00 in0.0 mm 0.00 in0.0 mm
02:10 AM 14.9°F-9.5°C 10.1°F-12.2°C 81% Calm Calm -- 30.31 in1026.4 mb - 0.00 in0.0 mm 0.00 in0.0 mm
02:20 AM 15.1°F-9.4°C 10.3°F-12.1°C 81% Calm Calm -- 30.32 in1026.8 mb - 0.00 in0.0 mm 0.00 in0.0 mm
02:30 AM 15.3°F-9.3°C 10.5°F-11.9°C 81% Calm Calm -- 30.32 in1026.8 mb - 0.00 in0.0 mm 0.00 in0.0 mm
02:40 AM 15.5°F-9.2°C 10.4°F-12.0°C 80% Calm Calm -- 30.32 in1026.8 mb - 0.00 in0.0 mm 0.00 in0.0 mm
02:50 AM 15.7°F-9.1°C 10.6°F-11.9°C 80% Calm Calm -- 30.32 in1026.8 mb - 0.00 in0.0 mm 0.00 in0.0 mm
03:00 AM 15.9°F-8.9°C 11.1°F-11.6°C 81% Calm Calm -- 30.32 in1026.8 mb - 0.00 in0.0 mm 0.00 in0.0 mm
03:10 AM 16.0°F-8.9°C 10.9°F-11.7°C 80% Calm Calm -- 30.31 in1026.4 mb - 0.00 in0.0 mm 0.00 in0.0 mm
03:20 AM 16.1°F-8.8°C 11.0°F-11.7°C 80% Calm Calm -- 30.31 in1026.4 mb - 0.00 in0.0 mm 0.00 in0.0 mm
03:30 AM 16.3°F-8.7°C 11.2°F-11.6°C 80% Calm Calm -- 30.32 in1026.8 mb - 0.00 in0.0 mm 0.00 in0.0 mm
03:40 AM 16.4°F-8.7°C 11.3°F-11.5°C 80% Calm Calm -- 30.32 in1026.8 mb - 0.00 in0.0 mm 0.00 in0.0 mm
03:50 AM 16.5°F-8.6°C 11.1°F-11.6°C 79% Calm Calm -- 30.32 in1026.8 mb - 0.00 in0.0 mm 0.00 in0.0 mm
04:00 AM 16.6°F-8.6°C 11.2°F-11.6°C 79% Calm Calm -- 30.32 in1026.8 mb - 0.00 in0.0 mm 0.00 in0.0 mm
04:10 AM 16.7°F-8.5°C 11.3°F-11.5°C 79% Calm Calm -- 30.32 in1026.8 mb - 0.00 in0.0 mm 0.00 in0.0 mm
04:20 AM 16.8°F-8.4°C 11.4°F-11.4°C 79% Calm Calm -- 30.32 in1026.8 mb - 0.00 in0.0 mm 0.00 in0.0 mm
04:30 AM 17.0°F-8.3°C 11.9°F-11.2°C 80% Calm Calm -- 30.32 in1026.8 mb - 0.00 in0.0 mm 0.00 in0.0 mm
04:40 AM 17.1°F-8.3°C 12.0°F-11.1°C 80% Calm Calm -- 30.32 in1026.8 mb - 0.00 in0.0 mm 0.00 in0.0 mm
04:50 AM 17.2°F-8.2°C 11.8°F-11.2°C 79% Calm Calm -- 30.32 in1026.8 mb - 0.00 in0.0 mm 0.00 in0.0 mm
05:00 AM 17.2°F-8.2°C 11.8°F-11.2°C 79% Calm Calm -- 30.33 in1027.1 mb - 0.00 in0.0 mm 0.00 in0.0 mm
05:10 AM 17.3°F-8.2°C 11.9°F-11.2°C 79% Calm Calm -- 30.34 in1027.4 mb - 0.00 in0.0 mm 0.00 in0.0 mm
05:20 AM 17.5°F-8.1°C 12.4°F-10.9°C 80% Calm Calm -- 30.34 in1027.4 mb - 0.00 in0.0 mm 0.00 in0.0 mm
05:30 AM 17.6°F-8.0°C 12.5°F-10.8°C 80% Calm Calm 1.2 mph1.9 kmh 30.34 in1027.4 mb - 0.00 in0.0 mm 0.00 in0.0 mm
05:40 AM 17.6°F-8.0°C 12.5°F-10.8°C 80% Calm Calm -- 30.34 in1027.4 mb - 0.00 in0.0 mm 0.00 in0.0 mm
05:50 AM 17.7°F-7.9°C 12.3°F-10.9°C 79% Calm Calm -- 30.35 in1027.8 mb - 0.00 in0.0 mm 0.00 in0.0 mm
06:00 AM 17.8°F-7.9°C 12.7°F-10.7°C 80% Calm Calm -- 30.35 in1027.8 mb - 0.00 in0.0 mm 0.00 in0.0 mm
06:10 AM 17.9°F-7.8°C 13.1°F-10.5°C 81% Calm Calm -- 30.35 in1027.8 mb - 0.00 in0.0 mm 0.00 in0.0 mm
06:20 AM 17.9°F-7.8°C 13.3°F-10.4°C 82% Calm Calm -- 30.36 in1028.1 mb - 0.00 in0.0 mm 0.00 in0.0 mm
06:30 AM 18.0°F-7.8°C 13.7°F-10.2°C 83% Calm Calm -- 30.36 in1028.1 mb - 0.00 in0.0 mm 0.00 in0.0 mm
06:40 AM 18.0°F-7.8°C 14.0°F-10.0°C 84% Calm Calm -- 30.36 in1028.1 mb - 0.00 in0.0 mm 0.00 in0.0 mm
06:50 AM 17.9°F-7.8°C 14.2°F-9.9°C 85% Calm Calm -- 30.36 in1028.1 mb - 0.00 in0.0 mm 0.00 in0.0 mm
07:00 AM 17.9°F-7.8°C 14.4°F-9.8°C 86% Calm Calm -- 30.36 in1028.1 mb - 0.00 in0.0 mm 0.00 in0.0 mm
07:10 AM 17.9°F-7.8°C 14.4°F-9.8°C 86% Calm Calm -- 30.36 in1028.1 mb - 0.00 in0.0 mm 0.00 in0.0 mm
07:20 AM 18.0°F-7.8°C 14.8°F-9.6°C 87% Calm Calm -- 30.37 in1028.4 mb - 0.00 in0.0 mm 0.00 in0.0 mm
07:30 AM 18.1°F-7.7°C 14.9°F-9.5°C 87% Calm Calm -- 30.37 in1028.4 mb - 0.00 in0.0 mm 0.00 in0.0 mm
07:40 AM 18.3°F-7.6°C 15.1°F-9.4°C 87% Calm Calm 1.2 mph1.9 kmh 30.37 in1028.4 mb - 0.00 in0.0 mm 0.00 in0.0 mm
07:50 AM 18.5°F-7.5°C 15.3°F-9.3°C 87% Calm Calm 2.3 mph3.7 kmh 30.37 in1028.4 mb - 0.00 in0.0 mm 0.00 in0.0 mm
08:00 AM 18.7°F-7.4°C 15.5°F-9.2°C 87% Calm Calm -- 30.37 in1028.4 mb - 0.00 in0.0 mm 0.00 in0.0 mm
08:10 AM 18.9°F-7.3°C 15.7°F-9.1°C 87% Calm Calm 1.2 mph1.9 kmh 30.38 in1028.8 mb - 0.00 in0.0 mm 0.00 in0.0 mm
08:20 AM 19.1°F-7.2°C 15.6°F-9.1°C 86% Calm Calm -- 30.38 in1028.8 mb - 0.00 in0.0 mm 0.00 in0.0 mm
08:30 AM 19.5°F-6.9°C 16.0°F-8.9°C 86% Calm Calm 1.2 mph1.9 kmh 30.38 in1028.8 mb - 0.00 in0.0 mm 0.00 in0.0 mm
08:40 AM 20.1°F-6.6°C 16.3°F-8.7°C 85% Calm Calm -- 30.38 in1028.8 mb - 0.00 in0.0 mm 0.00 in0.0 mm
08:50 AM 20.6°F-6.3°C 17.1°F-8.3°C 86% Calm Calm 1.2 mph1.9 kmh 30.38 in1028.8 mb - 0.00 in0.0 mm 0.00 in0.0 mm
09:00 AM 21.3°F-5.9°C 17.5°F-8.1°C 85% Calm Calm 1.2 mph1.9 kmh 30.38 in1028.8 mb - 0.00 in0.0 mm 0.00 in0.0 mm
09:10 AM 22.3°F-5.4°C 18.0°F-7.8°C 83% Calm Calm -- 30.38 in1028.8 mb - 0.00 in0.0 mm 0.00 in0.0 mm
09:20 AM 23.1°F-4.9°C 18.4°F-7.6°C 82% Calm Calm -- 30.38 in1028.8 mb - 0.00 in0.0 mm 0.00 in0.0 mm
09:30 AM 24.2°F-4.3°C 19.3°F-7.1°C 81% Calm Calm 1.2 mph1.9 kmh 30.37 in1028.4 mb - 0.00 in0.0 mm 0.00 in0.0 mm
09:40 AM 25.8°F-3.4°C 19.9°F-6.7°C 78% 1.2 mph SSW1.9 kmh SSW 1.2 mph1.9 kmh 30.37 in1028.4 mb - 0.00 in0.0 mm 0.00 in0.0 mm
09:50 AM 26.5°F-3.1°C 20.3°F-6.5°C 77% Calm Calm 1.2 mph1.9 kmh 30.37 in1028.4 mb - 0.00 in0.0 mm 0.00 in0.0 mm
10:00 AM 27.1°F-2.7°C 20.8°F-6.2°C 77% Calm Calm -- 30.36 in1028.1 mb - 0.00 in0.0 mm 0.00 in0.0 mm
10:10 AM 28.5°F-1.9°C 21.6°F-5.8°C 75% 1.2 mph SW1.9 kmh SW 2.3 mph3.7 kmh 30.36 in1028.1 mb - 0.00 in0.0 mm 0.00 in0.0 mm
10:20 AM 29.5°F-1.4°C 21.9°F-5.6°C 73% Calm Calm -- 30.36 in1028.1 mb - 0.00 in0.0 mm 0.00 in0.0 mm
10:30 AM 29.7°F-1.3°C 21.4°F-5.9°C 71% 1.2 mph WSW1.9 kmh WSW 2.3 mph3.7 kmh 30.36 in1028.1 mb - 0.00 in0.0 mm 0.00 in0.0 mm
10:40 AM 30.1°F-1.1°C 21.9°F-5.6°C 71% Calm Calm 1.2 mph1.9 kmh 30.35 in1027.8 mb - 0.01 in0.3 mm 0.01 in0.3 mm
10:50 AM 31.2°F-0.4°C 22.5°F-5.3°C 70% Calm Calm 2.3 mph3.7 kmh 30.35 in1027.8 mb - 0.00 in0.0 mm 0.01 in0.3 mm
11:00 AM 31.7°F-0.2°C 22.0°F-5.6°C 67% 1.2 mph S1.9 kmh S 1.2 mph1.9 kmh 30.34 in1027.4 mb - 0.00 in0.0 mm 0.01 in0.3 mm
11:10 AM 32.9°F0.5°C 23.5°F-4.7°C 68% 1.2 mph SW1.9 kmh SW 3.5 mph5.6 kmh 30.34 in1027.4 mb - 0.00 in0.0 mm 0.01 in0.3 mm
11:20 AM 33.8°F1.0°C 22.9°F-5.1°C 64% 2.3 mph WSW3.7 kmh WSW 2.3 mph3.7 kmh 30.34 in1027.4 mb - 0.00 in0.0 mm 0.01 in0.3 mm
11:30 AM 33.5°F0.8°C 22.3°F-5.4°C 63% 2.3 mph SSE3.7 kmh SSE 3.5 mph5.6 kmh 30.34 in1027.4 mb - 0.01 in0.3 mm 0.02 in0.5 mm
11:40 AM 34.1°F1.2°C 22.4°F-5.3°C 62% Calm Calm 1.2 mph1.9 kmh 30.34 in1027.4 mb - 0.00 in0.0 mm 0.02 in0.5 mm
11:50 AM 34.0°F1.1°C 23.1°F-4.9°C 64% 1.2 mph N1.9 kmh N 2.3 mph3.7 kmh 30.34 in1027.4 mb - 0.00 in0.0 mm 0.02 in0.5 mm
12:00 PM 33.9°F1.1°C 23.3°F-4.8°C 65% 1.2 mph S1.9 kmh S 2.3 mph3.7 kmh 30.34 in1027.4 mb - 0.00 in0.0 mm 0.02 in0.5 mm
12:10 PM 34.4°F1.3°C 23.1°F-4.9°C 63% 3.5 mph S5.6 kmh S 5.8 mph9.3 kmh 30.34 in1027.4 mb - 0.00 in0.0 mm 0.02 in0.5 mm
12:20 PM 35.3°F1.8°C 22.8°F-5.1°C 60% 1.2 mph SW1.9 kmh SW 3.5 mph5.6 kmh 30.34 in1027.4 mb - 0.01 in0.3 mm 0.03 in0.8 mm
12:30 PM 34.8°F1.6°C 22.4°F-5.3°C 60% 2.3 mph SE3.7 kmh SE 5.8 mph9.3 kmh 30.33 in1027.1 mb - 0.00 in0.0 mm 0.03 in0.8 mm
12:40 PM 34.2°F1.2°C 22.5°F-5.3°C 62% 2.3 mph S3.7 kmh S 2.3 mph3.7 kmh 30.33 in1027.1 mb - 0.00 in0.0 mm 0.03 in0.8 mm
12:50 PM 34.4°F1.3°C 23.1°F-4.9°C 63% Calm Calm 2.3 mph3.7 kmh 30.32 in1026.8 mb - 0.00 in0.0 mm 0.03 in0.8 mm
01:00 PM 35.6°F2.0°C 23.9°F-4.5°C 62% 1.2 mph WNW1.9 kmh WNW 2.3 mph3.7 kmh 30.32 in1026.8 mb - 0.00 in0.0 mm 0.03 in0.8 mm
01:10 PM 36.5°F2.5°C 23.1°F-4.9°C 58% 1.2 mph SW1.9 kmh SW 3.5 mph5.6 kmh 30.31 in1026.4 mb - 0.00 in0.0 mm 0.03 in0.8 mm
01:20 PM 36.8°F2.7°C 23.0°F-5.0°C 57% 1.2 mph ESE1.9 kmh ESE 2.3 mph3.7 kmh 30.31 in1026.4 mb - 0.01 in0.3 mm 0.04 in1.0 mm
01:30 PM 37.0°F2.8°C 23.2°F-4.9°C 57% Calm Calm 1.2 mph1.9 kmh 30.31 in1026.4 mb - 0.00 in0.0 mm 0.04 in1.0 mm
01:40 PM 38.4°F3.6°C 24.5°F-4.2°C 57% Calm Calm 2.3 mph3.7 kmh 30.30 in1026.1 mb - 0.00 in0.0 mm 0.04 in1.0 mm
01:50 PM 38.8°F3.8°C 24.0°F-4.4°C 55% Calm Calm -- 30.30 in1026.1 mb - 0.00 in0.0 mm 0.04 in1.0 mm
02:00 PM 39.0°F3.9°C 23.7°F-4.6°C 54% Calm Calm 1.2 mph1.9 kmh 30.30 in1026.1 mb - 0.00 in0.0 mm 0.04 in1.0 mm
02:10 PM 39.1°F3.9°C 24.7°F-4.1°C 56% 1.2 mph NNE1.9 kmh NNE 2.3 mph3.7 kmh 30.29 in1025.7 mb - 0.00 in0.0 mm 0.04 in1.0 mm
02:20 PM 38.8°F3.8°C 24.9°F-3.9°C 57% Calm Calm 1.2 mph1.9 kmh 30.29 in1025.7 mb - 0.00 in0.0 mm 0.04 in1.0 mm
02:30 PM 37.7°F3.2°C 23.0°F-5.0°C 55% Calm Calm 3.5 mph5.6 kmh 30.29 in1025.7 mb - 0.00 in0.0 mm 0.04 in1.0 mm
02:40 PM 36.8°F2.7°C 23.0°F-5.0°C 57% 1.2 mph S1.9 kmh S 2.3 mph3.7 kmh 30.29 in1025.7 mb - 0.00 in0.0 mm 0.04 in1.0 mm
02:50 PM 36.4°F2.4°C 23.5°F-4.7°C 59% 1.2 mph SSE1.9 kmh SSE 3.5 mph5.6 kmh 30.29 in1025.7 mb - 0.00 in0.0 mm 0.04 in1.0 mm
03:00 PM 36.4°F2.4°C 23.4°F-4.8°C 59% 2.3 mph E3.7 kmh E 2.3 mph3.7 kmh 30.29 in1025.7 mb - 0.00 in0.0 mm 0.04 in1.0 mm
03:10 PM 36.2°F2.3°C 23.2°F-4.9°C 59% 2.3 mph S3.7 kmh S 3.5 mph5.6 kmh 30.28 in1025.4 mb - 0.00 in0.0 mm 0.04 in1.0 mm
03:20 PM 36.0°F2.2°C 23.5°F-4.7°C 60% 1.2 mph SW1.9 kmh SW 3.5 mph5.6 kmh 30.28 in1025.4 mb - 0.00 in0.0 mm 0.04 in1.0 mm
03:30 PM 35.7°F2.1°C 23.9°F-4.5°C 62% Calm Calm 3.5 mph5.6 kmh 30.28 in1025.4 mb - 0.00 in0.0 mm 0.04 in1.0 mm
03:40 PM 35.3°F1.8°C 23.6°F-4.7°C 62% 1.2 mph SW1.9 kmh SW 2.3 mph3.7 kmh 30.28 in1025.4 mb - 0.00 in0.0 mm 0.04 in1.0 mm
03:50 PM 35.1°F1.7°C 23.4°F-4.8°C 62% 2.3 mph SW3.7 kmh SW 3.5 mph5.6 kmh 30.28 in1025.4 mb - 0.00 in0.0 mm 0.04 in1.0 mm
04:00 PM 35.0°F1.7°C 24.0°F-4.4°C 64% 2.3 mph E3.7 kmh E 3.5 mph5.6 kmh 30.28 in1025.4 mb - 0.00 in0.0 mm 0.04 in1.0 mm
04:10 PM 34.8°F1.6°C 23.4°F-4.8°C 63% 2.3 mph S3.7 kmh S 5.8 mph9.3 kmh 30.27 in1025.1 mb - 0.00 in0.0 mm 0.04 in1.0 mm
04:20 PM 34.6°F1.4°C 24.0°F-4.4°C 65% Calm Calm 2.3 mph3.7 kmh 30.27 in1025.1 mb - 0.00 in0.0 mm 0.04 in1.0 mm
04:30 PM 34.2°F1.2°C 24.4°F-4.2°C 67% 1.2 mph SSE1.9 kmh SSE 2.3 mph3.7 kmh 30.27 in1025.1 mb - 0.00 in0.0 mm 0.04 in1.0 mm
04:40 PM 34.0°F1.1°C 23.8°F-4.6°C 66% Calm Calm 1.2 mph1.9 kmh 30.28 in1025.4 mb - 0.00 in0.0 mm 0.04 in1.0 mm
04:50 PM 33.7°F0.9°C 23.9°F-4.5°C 67% Calm Calm 2.3 mph3.7 kmh 30.28 in1025.4 mb - 0.00 in0.0 mm 0.04 in1.0 mm
05:00 PM 33.6°F0.9°C 23.8°F-4.6°C 67% Calm Calm -- 30.27 in1025.1 mb - 0.00 in0.0 mm 0.04 in1.0 mm
05:10 PM 33.3°F0.7°C 23.9°F-4.5°C 68% Calm Calm -- 30.27 in1025.1 mb - 0.00 in0.0 mm 0.04 in1.0 mm
05:20 PM 33.1°F0.6°C 24.0°F-4.4°C 69% Calm Calm -- 30.27 in1025.1 mb - 0.00 in0.0 mm 0.04 in1.0 mm
05:30 PM 32.8°F0.4°C 23.7°F-4.6°C 69% Calm Calm -- 30.27 in1025.1 mb - 0.00 in0.0 mm 0.04 in1.0 mm
05:40 PM 32.6°F0.3°C 23.6°F-4.7°C 69% Calm Calm -- 30.27 in1025.1 mb - 0.00 in0.0 mm 0.04 in1.0 mm
05:50 PM 32.5°F0.3°C 24.5°F-4.2°C 72% Calm Calm -- 30.28 in1025.4 mb - 0.00 in0.0 mm 0.04 in1.0 mm
06:00 PM 32.3°F0.2°C 25.0°F-3.9°C 74% Calm Calm -- 30.28 in1025.4 mb - 0.00 in0.0 mm 0.04 in1.0 mm
06:10 PM 32.0°F0.0°C 24.3°F-4.3°C 73% Calm Calm -- 30.29 in1025.7 mb - 0.00 in0.0 mm 0.04 in1.0 mm
06:20 PM 31.9°F-0.1°C 24.9°F-3.9°C 75% Calm Calm 1.2 mph1.9 kmh 30.29 in1025.7 mb - 0.00 in0.0 mm 0.04 in1.0 mm
06:30 PM 31.7°F-0.2°C 24.7°F-4.1°C 75% Calm Calm -- 30.29 in1025.7 mb - 0.00 in0.0 mm 0.04 in1.0 mm
06:40 PM 31.6°F-0.2°C 24.9°F-3.9°C 76% Calm Calm -- 30.29 in1025.7 mb - 0.00 in0.0 mm 0.04 in1.0 mm
06:50 PM 31.5°F-0.3°C 24.5°F-4.2°C 75% Calm Calm -- 30.29 in1025.7 mb - 0.00 in0.0 mm 0.04 in1.0 mm
07:00 PM 31.3°F-0.4°C 24.6°F-4.1°C 76% Calm Calm 1.2 mph1.9 kmh 30.29 in1025.7 mb - 0.00 in0.0 mm 0.04 in1.0 mm
07:10 PM 31.2°F-0.4°C 24.5°F-4.2°C 76% Calm Calm 1.2 mph1.9 kmh 30.28 in1025.4 mb - 0.00 in0.0 mm 0.04 in1.0 mm
07:20 PM 31.1°F-0.5°C 24.4°F-4.2°C 76% Calm Calm -- 30.28 in1025.4 mb - 0.00 in0.0 mm 0.04 in1.0 mm
07:30 PM 31.1°F-0.5°C 24.4°F-4.2°C 76% Calm Calm -- 30.27 in1025.1 mb - 0.00 in0.0 mm 0.04 in1.0 mm
07:40 PM 31.0°F-0.6°C 24.6°F-4.1°C 77% Calm Calm -- 30.27 in1025.1 mb - 0.00 in0.0 mm 0.04 in1.0 mm
07:50 PM 31.0°F-0.6°C 24.9°F-3.9°C 78% Calm Calm -- 30.28 in1025.4 mb - 0.00 in0.0 mm 0.04 in1.0 mm
08:00 PM 31.0°F-0.6°C 25.2°F-3.8°C 79% Calm Calm -- 30.28 in1025.4 mb - 0.00 in0.0 mm 0.04 in1.0 mm
08:10 PM 30.8°F-0.7°C 24.4°F-4.2°C 77% Calm Calm -- 30.28 in1025.4 mb - 0.00 in0.0 mm 0.04 in1.0 mm
08:20 PM 30.8°F-0.7°C 24.7°F-4.1°C 78% Calm Calm 1.2 mph1.9 kmh 30.27 in1025.1 mb - 0.00 in0.0 mm 0.04 in1.0 mm
08:30 PM 30.8°F-0.7°C 24.7°F-4.1°C 78% Calm Calm -- 30.27 in1025.1 mb - 0.00 in0.0 mm 0.04 in1.0 mm
08:40 PM 30.8°F-0.7°C 24.7°F-4.1°C 78% Calm Calm -- 30.27 in1025.1 mb - 0.00 in0.0 mm 0.04 in1.0 mm
08:50 PM 30.8°F-0.7°C 25.1°F-3.8°C 79% Calm Calm -- 30.27 in1025.1 mb - 0.00 in0.0 mm 0.04 in1.0 mm
09:00 PM 30.8°F-0.7°C 25.4°F-3.7°C 80% Calm Calm -- 30.26 in1024.7 mb - 0.00 in0.0 mm 0.04 in1.0 mm
09:10 PM 30.8°F-0.7°C 25.4°F-3.7°C 80% Calm Calm -- 30.27 in1025.1 mb - 0.00 in0.0 mm 0.04 in1.0 mm
09:20 PM 30.7°F-0.7°C 25.3°F-3.7°C 80% Calm Calm -- 30.26 in1024.7 mb - 0.00 in0.0 mm 0.04 in1.0 mm
09:30 PM 30.7°F-0.7°C 25.0°F-3.9°C 79% Calm Calm 1.2 mph1.9 kmh 30.25 in1024.4 mb - 0.00 in0.0 mm 0.04 in1.0 mm
09:40 PM 30.6°F-0.8°C 24.9°F-3.9°C 79% Calm Calm 1.2 mph1.9 kmh 30.25 in1024.4 mb - 0.00 in0.0 mm 0.04 in1.0 mm
09:50 PM 30.5°F-0.8°C 24.8°F-4.0°C 79% Calm Calm -- 30.25 in1024.4 mb - 0.00 in0.0 mm 0.04 in1.0 mm
10:00 PM 30.5°F-0.8°C 25.1°F-3.8°C 80% Calm Calm -- 30.25 in1024.4 mb - 0.00 in0.0 mm 0.04 in1.0 mm
10:10 PM 30.4°F-0.9°C 25.3°F-3.7°C 81% Calm Calm -- 30.25 in1024.4 mb - 0.00 in0.0 mm 0.04 in1.0 mm
10:20 PM 30.3°F-0.9°C 25.2°F-3.8°C 81% Calm Calm -- 30.24 in1024.0 mb - 0.00 in0.0 mm 0.04 in1.0 mm
10:30 PM 30.3°F-0.9°C 25.2°F-3.8°C 81% Calm Calm -- 30.23 in1023.7 mb - 0.00 in0.0 mm 0.04 in1.0 mm
10:40 PM 30.3°F-0.9°C 25.5°F-3.6°C 82% Calm Calm -- 30.22 in1023.4 mb - 0.00 in0.0 mm 0.04 in1.0 mm
10:50 PM 30.2°F-1.0°C 25.1°F-3.8°C 81% Calm Calm -- 30.22 in1023.4 mb - 0.00 in0.0 mm 0.04 in1.0 mm
11:00 PM 30.1°F-1.1°C 25.0°F-3.9°C 81% Calm Calm -- 30.22 in1023.4 mb - 0.00 in0.0 mm 0.04 in1.0 mm
11:10 PM 30.1°F-1.1°C 24.9°F-3.9°C 81% Calm Calm -- 30.22 in1023.4 mb - 0.00 in0.0 mm 0.04 in1.0 mm
11:20 PM 30.0°F-1.1°C 24.9°F-3.9°C 81% Calm Calm -- 30.21 in1023.0 mb - 0.00 in0.0 mm 0.04 in1.0 mm
11:30 PM 30.1°F-1.1°C 25.0°F-3.9°C 81% Calm Calm 1.2 mph1.9 kmh 30.21 in1023.0 mb - 0.00 in0.0 mm 0.04 in1.0 mm
11:40 PM 30.0°F-1.1°C 24.9°F-3.9°C 81% Calm Calm 2.3 mph3.7 kmh 30.20 in1022.7 mb - 0.00 in0.0 mm 0.04 in1.0 mm
11:50 PM 30.0°F-1.1°C 24.9°F-3.9°C 81% Calm Calm -- 30.20 in1022.7 mb - 0.00 in0.0 mm 0.04 in1.0 mm